Time;durP1;ratioP1;P1;durP2;ratioP2;P2;SDS_P1;SDS_P2;PMS_P1;PMS_P2;Temp;Humidity;BMP_temperature;BMP_pressure;BME280_temperature;BME280_humidity;BME280_pressure;Samples;Min_cycle;Max_cycle;Signal;HPM_P1;HPM_P2
2022/03/05 00:00:30;;;;;;;9.02;7.47;;;7.50;99.90;;;;;;5046257;28;20224;-53
2022/03/05 00:02:58;;;;;;;9.05;6.85;;;7.50;99.90;;;;;;5052710;28;20281;-54
2022/03/05 00:05:27;;;;;;;9.35;6.90;;;7.40;99.90;;;;;;5046471;28;20200;-51
2022/03/05 00:07:55;;;;;;;9.80;6.75;;;7.40;99.90;;;;;;5032240;28;20248;-53
2022/03/05 00:10:23;;;;;;;12.27;7.55;;;7.40;99.90;;;;;;5032538;28;20199;-52
2022/03/05 00:12:53;;;;;;;7.93;6.93;;;7.40;99.90;;;;;;5052139;28;20247;-53
2022/03/05 00:15:23;;;;;;;10.45;8.32;;;7.40;99.90;;;;;;5050934;28;20197;-53
2022/03/05 00:17:52;;;;;;;11.27;7.93;;;7.40;99.90;;;;;;5051992;28;20239;-52
2022/03/05 00:20:20;;;;;;;10.85;7.72;;;7.40;99.90;;;;;;5030198;28;20192;-53
2022/03/05 00:22:52;;;;;;;10.85;7.95;;;7.40;99.90;;;;;;5035559;28;20295;-52
2022/03/05 00:25:21;;;;;;;10.95;7.97;;;7.40;99.90;;;;;;5051977;28;20668;-54
2022/03/05 00:27:49;;;;;;;9.88;7.85;;;7.40;99.90;;;;;;5051659;28;20806;-53
2022/03/05 00:30:18;;;;;;;13.77;8.57;;;7.40;99.90;;;;;;5051356;28;20311;-53
2022/03/05 00:32:50;;;;;;;11.13;6.85;;;7.40;99.90;;;;;;5051656;28;20224;-53
2022/03/05 00:35:18;;;;;;;8.30;7.45;;;7.40;99.90;;;;;;5047747;28;20201;-53
2022/03/05 00:37:46;;;;;;;9.95;8.02;;;7.40;99.90;;;;;;5032949;28;20213;-52
2022/03/05 00:40:15;;;;;;;10.45;7.40;;;7.30;99.90;;;;;;5053413;28;20197;-53
2022/03/05 00:42:44;;;;;;;11.55;7.18;;;7.40;99.90;;;;;;5051665;28;20220;-53
2022/03/05 00:45:12;;;;;;;9.32;6.75;;;7.30;99.90;;;;;;5042311;28;20641;-53
2022/03/05 00:47:41;;;;;;;10.63;8.63;;;7.30;99.90;;;;;;5034765;28;20312;-52
2022/03/05 00:50:12;;;;;;;11.60;7.75;;;7.30;99.90;;;;;;5031916;28;20262;-53
2022/03/05 00:52:40;;;;;;;12.20;9.10;;;7.30;99.90;;;;;;5039396;28;20220;-52
2022/03/05 00:55:10;;;;;;;10.68;7.65;;;7.30;99.90;;;;;;5051925;28;20656;-52
2022/03/05 00:57:39;;;;;;;10.50;8.05;;;7.30;99.90;;;;;;5050880;28;20212;-52
2022/03/05 01:00:10;;;;;;;11.90;8.10;;;7.30;99.90;;;;;;5046861;28;20194;-53
2022/03/05 01:02:41;;;;;;;12.85;9.25;;;7.30;99.90;;;;;;5050353;28;20265;-54
2022/03/05 01:05:27;;;;;;;10.77;7.88;;;7.30;99.90;;;;;;5046164;28;20244;-53
2022/03/05 01:08:15;;;;;;;11.63;7.80;;;7.30;99.90;;;;;;5051737;28;20603;-52
2022/03/05 01:11:02;;;;;;;12.60;9.60;;;7.30;99.90;;;;;;5051940;28;20215;-53
2022/03/05 01:13:49;;;;;;;11.48;8.23;;;7.20;99.90;;;;;;5046403;28;20341;-53
2022/03/05 01:16:17;;;;;;;8.20;6.70;;;7.20;99.90;;;;;;5030930;28;20718;-53
2022/03/05 01:18:48;;;;;;;12.38;7.93;;;7.20;99.90;;;;;;5035287;28;20216;-53
2022/03/05 01:21:16;;;;;;;12.77;8.95;;;7.20;99.90;;;;;;5038716;28;20304;-53
2022/03/05 01:23:46;;;;;;;10.85;8.00;;;7.20;99.90;;;;;;5034955;28;20216;-54
2022/03/05 01:26:14;;;;;;;10.68;7.97;;;7.20;99.90;;;;;;5051155;28;20250;-54
2022/03/05 01:28:42;;;;;;;11.50;8.48;;;7.20;99.90;;;;;;5032902;28;20765;-53
2022/03/05 01:31:10;;;;;;;12.45;8.68;;;7.20;99.90;;;;;;5049776;28;20638;-53
2022/03/05 01:33:38;;;;;;;9.48;7.78;;;7.20;99.90;;;;;;5050496;28;20227;-53
2022/03/05 01:36:08;;;;;;;14.48;10.25;;;7.20;99.90;;;;;;5040026;28;20185;-53
2022/03/05 01:38:36;;;;;;;14.98;9.25;;;7.20;99.90;;;;;;5048270;28;20308;-54
2022/03/05 01:41:05;;;;;;;15.50;10.13;;;7.20;99.90;;;;;;5051532;28;20270;-53
2022/03/05 01:43:34;;;;;;;14.25;9.80;;;7.10;99.90;;;;;;5049397;28;20275;-52
2022/03/05 01:46:02;;;;;;;14.18;8.82;;;7.10;99.70;;;;;;5031077;28;20258;-53
2022/03/05 01:48:31;;;;;;;13.38;8.48;;;7.10;99.90;;;;;;5046095;28;20558;-53
2022/03/05 01:50:59;;;;;;;15.50;9.00;;;7.10;99.90;;;;;;5040675;28;20220;-54
2022/03/05 01:53:29;;;;;;;12.68;7.90;;;7.10;99.90;;;;;;5044664;28;20601;-54
2022/03/05 01:55:57;;;;;;;13.55;8.88;;;7.10;99.90;;;;;;5050456;28;20231;-53
2022/03/05 01:58:26;;;;;;;9.75;8.25;;;7.10;99.90;;;;;;5049217;28;20300;-54
2022/03/05 02:00:54;;;;;;;14.07;9.63;;;7.10;99.90;;;;;;5032369;28;20217;-53
2022/03/05 02:03:22;;;;;;;13.23;9.40;;;7.10;99.90;;;;;;5050115;28;20224;-53
2022/03/05 02:05:50;;;;;;;11.32;7.82;;;7.10;99.90;;;;;;5046442;28;20605;-53
2022/03/05 02:08:19;;;;;;;13.13;9.18;;;7.10;99.90;;;;;;5030520;28;20217;-53
2022/03/05 02:10:51;;;;;;;12.55;8.35;;;7.10;99.90;;;;;;5030989;28;20193;-52
2022/03/05 02:13:20;;;;;;;12.18;8.40;;;7.10;99.90;;;;;;5049804;28;20740;-53
2022/03/05 02:15:54;;;;;;;11.50;7.95;;;7.00;99.90;;;;;;5037585;28;20201;-52
2022/03/05 02:18:22;;;;;;;12.15;7.57;;;7.10;99.90;;;;;;5049983;28;20311;-52
2022/03/05 02:20:53;;;;;;;10.50;7.63;;;7.10;99.90;;;;;;5050179;28;20617;-54
2022/03/05 02:23:21;;;;;;;14.48;9.50;;;7.10;99.90;;;;;;5049737;28;20274;-53
2022/03/05 02:25:54;;;;;;;12.95;8.30;;;7.10;99.90;;;;;;5050110;28;20192;-53
2022/03/05 02:28:23;;;;;;;14.63;9.80;;;7.00;99.90;;;;;;5048261;28;20255;-53
2022/03/05 02:30:51;;;;;;;12.60;8.63;;;7.00;99.90;;;;;;5050012;28;20311;-52
2022/03/05 02:33:20;;;;;;;12.27;8.27;;;7.00;99.90;;;;;;5049932;28;20749;-53
2022/03/05 02:35:48;;;;;;;11.27;7.60;;;7.00;99.90;;;;;;5047834;28;20188;-53
2022/03/05 02:38:19;;;;;;;13.38;9.35;;;7.00;99.90;;;;;;5050090;28;20577;-53
2022/03/05 02:40:49;;;;;;;13.23;8.57;;;7.00;99.90;;;;;;5050059;28;20651;-53
2022/03/05 02:43:18;;;;;;;12.75;8.13;;;7.00;99.90;;;;;;5045768;28;20811;-52
2022/03/05 02:45:47;;;;;;;12.95;7.38;;;7.00;99.90;;;;;;5034783;28;20408;-53
2022/03/05 02:48:18;;;;;;;10.88;7.30;;;7.00;99.90;;;;;;5049834;28;20228;-53
2022/03/05 02:50:48;;;;;;;11.85;7.50;;;7.00;99.90;;;;;;5023969;28;20213;-53
2022/03/05 02:53:18;;;;;;;8.85;6.85;;;7.00;99.90;;;;;;5029746;28;20233;-53
2022/03/05 02:55:48;;;;;;;12.25;9.00;;;7.00;99.90;;;;;;5027410;28;20227;-53
2022/03/05 02:58:16;;;;;;;14.13;10.18;;;7.00;99.90;;;;;;5049462;28;20592;-52
2022/03/05 03:00:44;;;;;;;13.07;9.55;;;7.00;99.90;;;;;;5044350;28;20204;-53
2022/03/05 03:03:14;;;;;;;11.30;8.25;;;7.00;99.90;;;;;;5049844;28;20755;-54
2022/03/05 03:05:44;;;;;;;11.82;8.88;;;7.00;99.90;;;;;;5041132;28;20239;-51
2022/03/05 03:08:15;;;;;;;14.90;9.35;;;7.00;99.90;;;;;;5032393;28;20279;-52
2022/03/05 03:10:46;;;;;;;10.65;8.52;;;7.00;99.90;;;;;;5049877;28;20279;-54
2022/03/05 03:13:14;;;;;;;12.35;8.40;;;7.00;99.90;;;;;;5049480;28;20303;-53
2022/03/05 03:15:42;;;;;;;12.68;8.65;;;7.00;99.90;;;;;;5039569;28;20287;-53
2022/03/05 03:18:10;;;;;;;15.40;8.98;;;7.00;99.90;;;;;;5049079;28;20220;-52
2022/03/05 03:20:40;;;;;;;13.40;8.48;;;7.00;99.90;;;;;;5029976;28;20200;-54
2022/03/05 03:23:08;;;;;;;14.77;9.88;;;7.00;99.90;;;;;;5049258;28;20273;-51
2022/03/05 03:25:38;;;;;;;14.25;8.73;;;6.90;99.90;;;;;;5049524;28;20216;-53
2022/03/05 03:28:08;;;;;;;11.43;8.82;;;6.90;99.90;;;;;;5049018;28;20659;-53
2022/03/05 03:30:37;;;;;;;9.68;7.53;;;6.90;99.90;;;;;;5048433;28;20262;-53
2022/03/05 03:33:05;;;;;;;15.57;9.65;;;6.90;99.90;;;;;;5048113;28;20235;-53
2022/03/05 03:35:33;;;;;;;11.13;7.68;;;6.90;99.90;;;;;;5043217;28;20224;-52
2022/03/05 03:38:02;;;;;;;14.23;9.27;;;6.90;99.90;;;;;;5031363;28;20256;-52
2022/03/05 03:40:30;;;;;;;12.93;8.55;;;6.90;99.90;;;;;;5050225;28;20193;-53
2022/03/05 03:42:58;;;;;;;12.95;9.20;;;6.90;99.90;;;;;;5051716;28;20216;-53
2022/03/05 03:45:28;;;;;;;13.27;8.15;;;6.90;99.90;;;;;;5041518;28;20285;-53
2022/03/05 03:47:56;;;;;;;11.18;8.07;;;6.90;99.90;;;;;;5033084;28;20228;-52
2022/03/05 03:50:24;;;;;;;14.85;8.95;;;6.80;99.90;;;;;;5031149;28;20255;-53
2022/03/05 03:52:54;;;;;;;14.43;9.35;;;6.80;99.90;;;;;;5033124;28;20217;-52
2022/03/05 03:55:26;;;;;;;14.95;9.70;;;6.80;99.90;;;;;;5052835;28;20659;-54
2022/03/05 03:57:54;;;;;;;13.38;8.73;;;6.80;99.90;;;;;;5047484;28;20205;-54
2022/03/05 04:00:23;;;;;;;13.95;9.07;;;6.80;99.90;;;;;;5051630;28;20197;-52
2022/03/05 04:03:06;;;;;;;12.60;8.65;;;6.80;99.90;;;;;;5052386;28;20217;-51
2022/03/05 04:05:34;;;;;;;12.52;8.85;;;6.80;99.90;;;;;;5045677;28;20197;-53
2022/03/05 04:10:52;;;;;;;13.70;9.50;;;6.80;99.90;;;;;;5052329;28;20271;-53
2022/03/05 04:13:20;;;;;;;13.52;9.45;;;6.80;99.90;;;;;;5052126;28;20227;-53
2022/03/05 04:15:48;;;;;;;11.80;8.90;;;6.80;99.90;;;;;;5040372;28;20205;-51
2022/03/05 04:18:18;;;;;;;16.58;9.18;;;6.80;99.90;;;;;;5052055;28;20225;-52
2022/03/05 04:20:46;;;;;;;15.48;9.60;;;6.80;99.90;;;;;;5051120;28;20203;-54
2022/03/05 04:23:15;;;;;;;14.73;9.15;;;6.80;99.90;;;;;;5032894;28;20225;-53
2022/03/05 04:25:43;;;;;;;13.48;8.45;;;6.80;99.90;;;;;;5032746;28;20188;-53
2022/03/05 04:28:11;;;;;;;12.82;9.50;;;6.80;99.90;;;;;;5051735;28;20224;-53
2022/03/05 04:30:40;;;;;;;13.63;8.65;;;6.80;99.90;;;;;;5042078;28;20200;-53
2022/03/05 04:33:08;;;;;;;12.38;7.95;;;6.80;99.90;;;;;;5051612;28;20311;-54
2022/03/05 04:35:38;;;;;;;13.52;7.90;;;6.80;99.90;;;;;;5046854;28;20284;-53
2022/03/05 04:38:06;;;;;;;11.75;8.00;;;6.80;99.90;;;;;;5052242;28;20251;-53
2022/03/05 04:40:35;;;;;;;10.40;7.40;;;6.80;99.90;;;;;;5052445;28;20189;-53
2022/03/05 04:43:03;;;;;;;14.07;8.23;;;6.80;99.90;;;;;;5049235;28;20228;-54
2022/03/05 04:45:35;;;;;;;15.57;9.35;;;6.80;99.90;;;;;;5038743;28;20738;-52
2022/03/05 04:48:05;;;;;;;12.38;8.50;;;6.80;99.90;;;;;;5051809;28;20355;-52
2022/03/05 04:50:34;;;;;;;13.60;8.80;;;6.80;99.90;;;;;;5045668;28;20280;-53
2022/03/05 04:53:03;;;;;;;13.75;8.15;;;6.80;99.90;;;;;;5031631;28;20216;-53
2022/03/05 04:55:32;;;;;;;13.73;8.80;;;6.80;99.90;;;;;;5047835;28;20665;-53
2022/03/05 04:58:00;;;;;;;14.23;8.60;;;6.80;99.90;;;;;;5049072;28;20228;-53
2022/03/05 05:00:28;;;;;;;13.43;8.73;;;6.80;99.90;;;;;;5042519;28;20288;-53
2022/03/05 05:02:56;;;;;;;15.85;10.35;;;6.80;99.90;;;;;;5050861;28;20228;-53
2022/03/05 05:05:25;;;;;;;16.33;10.45;;;6.70;99.90;;;;;;5046409;28;20189;-55
2022/03/05 05:07:53;;;;;;;11.90;8.07;;;6.70;99.90;;;;;;5045121;28;20666;-53
2022/03/05 05:10:23;;;;;;;12.07;8.65;;;6.70;99.90;;;;;;5051873;28;20180;-53
2022/03/05 05:12:51;;;;;;;13.60;8.85;;;6.70;99.90;;;;;;5050701;28;20304;-53
2022/03/05 05:15:19;;;;;;;12.20;8.27;;;6.70;99.90;;;;;;5026877;28;20263;-54
2022/03/05 05:17:47;;;;;;;12.25;8.45;;;6.70;99.90;;;;;;5042686;28;20220;-52
2022/03/05 05:20:15;;;;;;;15.05;10.30;;;6.70;99.90;;;;;;5047847;28;20212;-53
2022/03/05 05:22:44;;;;;;;10.95;7.82;;;6.70;99.90;;;;;;5042042;28;20236;-54
2022/03/05 05:25:12;;;;;;;14.35;9.13;;;6.70;99.90;;;;;;5051211;28;20652;-54
2022/03/05 05:27:42;;;;;;;13.52;8.77;;;6.70;99.90;;;;;;5050289;28;20232;-53
2022/03/05 05:30:10;;;;;;;17.58;9.50;;;6.70;99.90;;;;;;5050300;28;20196;-52
2022/03/05 05:32:38;;;;;;;12.43;8.55;;;6.70;99.90;;;;;;5050407;28;20224;-52
2022/03/05 05:35:07;;;;;;;13.77;8.45;;;6.70;99.90;;;;;;5048089;28;20244;-53
2022/03/05 05:37:36;;;;;;;12.80;8.10;;;6.70;99.90;;;;;;5039596;28;20235;-53
2022/03/05 05:40:05;;;;;;;12.52;8.65;;;6.60;99.90;;;;;;5051956;28;20196;-53
2022/03/05 05:42:33;;;;;;;11.82;7.72;;;6.60;99.90;;;;;;5050588;28;20220;-54
2022/03/05 05:45:03;;;;;;;13.48;8.13;;;6.60;99.90;;;;;;5047349;28;20208;-53
2022/03/05 05:47:31;;;;;;;13.65;8.95;;;6.60;99.90;;;;;;5047620;28;20220;-53
2022/03/05 05:49:59;;;;;;;13.90;8.95;;;6.60;99.90;;;;;;5049420;28;20211;-53
2022/03/05 05:52:28;;;;;;;11.27;8.05;;;6.60;99.90;;;;;;5046388;28;20220;-52
2022/03/05 05:54:56;;;;;;;14.43;8.55;;;6.60;99.90;;;;;;5051241;28;20303;-53
2022/03/05 05:57:24;;;;;;;13.27;8.38;;;6.60;99.90;;;;;;5049690;28;20188;-53
2022/03/05 05:59:52;;;;;;;13.90;8.70;;;6.60;99.90;;;;;;5034942;28;20224;-53
2022/03/05 06:02:23;;;;;;;11.38;7.70;;;6.60;99.90;;;;;;5048865;28;20212;-52
2022/03/05 06:04:51;;;;;;;13.20;8.40;;;6.60;99.90;;;;;;5046529;28;20612;-53
2022/03/05 06:07:19;;;;;;;14.35;8.48;;;6.60;99.90;;;;;;5050066;28;20200;-53
2022/03/05 06:09:49;;;;;;;13.57;8.48;;;6.60;99.90;;;;;;5050721;28;20189;-54
2022/03/05 06:12:18;;;;;;;14.32;9.55;;;6.60;99.90;;;;;;5050260;28;20247;-52
2022/03/05 06:14:47;;;;;;;13.38;8.68;;;6.50;99.90;;;;;;5038499;28;20205;-52
2022/03/05 06:17:15;;;;;;;14.40;8.70;;;6.50;99.90;;;;;;5030370;28;20250;-53
2022/03/05 06:19:46;;;;;;;13.82;8.30;;;6.50;99.90;;;;;;5038376;28;20188;-52
2022/03/05 06:22:16;;;;;;;14.60;8.30;;;6.50;99.90;;;;;;5034832;28;20561;-52
2022/03/05 06:24:44;;;;;;;13.43;9.10;;;6.50;99.90;;;;;;5050321;28;20655;-55
2022/03/05 06:27:13;;;;;;;12.80;7.35;;;6.50;99.90;;;;;;5049778;28;20204;-54
2022/03/05 06:29:41;;;;;;;11.20;6.80;;;6.50;99.90;;;;;;5034303;28;20201;-53
2022/03/05 06:32:11;;;;;;;13.40;9.43;;;6.50;99.90;;;;;;5032575;28;20619;-52
2022/03/05 06:34:39;;;;;;;15.20;8.93;;;6.50;99.90;;;;;;5050194;28;20258;-53
2022/03/05 06:37:08;;;;;;;13.80;8.02;;;6.50;99.90;;;;;;5044812;28;20611;-52
2022/03/05 06:39:36;;;;;;;12.05;9.05;;;6.50;99.90;;;;;;5048742;28;20224;-53
2022/03/05 06:42:06;;;;;;;14.43;8.15;;;6.50;99.90;;;;;;5043708;28;20274;-53
2022/03/05 06:44:35;;;;;;;13.40;7.85;;;6.50;99.90;;;;;;5035757;28;20220;-53
2022/03/05 06:47:05;;;;;;;15.02;8.48;;;6.50;99.90;;;;;;5050283;28;20196;-53
2022/03/05 06:49:34;;;;;;;14.07;8.98;;;6.40;99.90;;;;;;5049283;28;20262;-53
2022/03/05 06:52:03;;;;;;;16.13;9.82;;;6.40;99.90;;;;;;5031447;28;20696;-53
2022/03/05 06:54:32;;;;;;;15.50;9.52;;;6.40;99.90;;;;;;5037732;28;20223;-54
2022/03/05 06:57:00;;;;;;;13.80;9.07;;;6.40;99.90;;;;;;5047993;28;20216;-53
2022/03/05 06:59:29;;;;;;;16.70;9.65;;;6.40;99.90;;;;;;5044706;28;20224;-53
2022/03/05 07:01:57;;;;;;;13.15;8.40;;;6.40;99.90;;;;;;5029982;28;20644;-53
2022/03/05 07:04:28;;;;;;;13.77;9.93;;;6.40;99.90;;;;;;5040156;28;20688;-53
2022/03/05 07:06:57;;;;;;;14.40;9.05;;;6.40;99.90;;;;;;5046100;28;20189;-54
2022/03/05 07:09:26;;;;;;;12.18;7.72;;;6.40;99.90;;;;;;5049575;28;20223;-52
2022/03/05 07:11:59;;;;;;;13.50;8.93;;;6.40;99.90;;;;;;5049107;28;20218;-53
2022/03/05 07:14:28;;;;;;;14.52;9.48;;;6.40;99.90;;;;;;5046309;28;20223;-53
2022/03/05 07:16:57;;;;;;;13.55;8.60;;;6.40;99.90;;;;;;5051280;28;20643;-52
2022/03/05 07:19:25;;;;;;;13.10;7.68;;;6.40;99.90;;;;;;5053672;28;20572;-53
2022/03/05 07:21:54;;;;;;;13.73;9.25;;;6.40;99.90;;;;;;5046956;28;20723;-52
2022/03/05 07:24:23;;;;;;;13.23;8.63;;;6.40;99.90;;;;;;5052093;28;20242;-52
2022/03/05 07:26:51;;;;;;;14.82;8.65;;;6.40;99.90;;;;;;5052622;28;20656;-53
2022/03/05 07:29:23;;;;;;;17.20;9.20;;;6.40;99.90;;;;;;5051780;28;20212;-53
2022/03/05 07:31:51;;;;;;;17.73;10.43;;;6.30;99.90;;;;;;5052441;28;20630;-52
2022/03/05 07:34:20;;;;;;;17.40;10.88;;;6.40;99.90;;;;;;5051932;28;20304;-54
2022/03/05 07:36:48;;;;;;;15.38;9.68;;;6.30;99.90;;;;;;5037818;28;20205;-53
2022/03/05 07:39:18;;;;;;;17.88;9.98;;;6.30;99.90;;;;;;5051795;28;20235;-53
2022/03/05 07:42:06;;;;;;;14.70;8.82;;;6.30;99.90;;;;;;5053419;28;20227;-52
2022/03/05 07:44:56;;;;;;;13.32;8.32;;;6.30;99.90;;;;;;5023932;28;20278;-53
2022/03/05 07:47:44;;;;;;;18.08;10.35;;;6.30;99.90;;;;;;5051377;28;20222;-53
2022/03/05 07:50:33;;;;;;;15.02;9.38;;;6.30;99.90;;;;;;5050924;28;20238;-54
2022/03/05 07:53:31;;;;;;;17.38;9.20;;;6.30;99.90;;;;;;5051649;28;20331;-54
2022/03/05 07:56:23;;;;;;;16.63;9.82;;;6.40;99.90;;;;;;5033421;28;20220;-54
2022/03/05 07:59:14;;;;;;;13.95;9.95;;;6.40;99.90;;;;;;5052205;28;20235;-54
2022/03/05 08:02:15;;;;;;;15.75;9.07;;;6.30;99.90;;;;;;5038579;28;20261;-51
2022/03/05 08:05:13;;;;;;;14.80;8.23;;;6.30;99.90;;;;;;5040601;28;20215;-54
2022/03/05 08:08:03;;;;;;;16.88;9.38;;;6.30;99.90;;;;;;5047347;28;20575;-52
2022/03/05 08:10:52;;;;;;;14.05;9.70;;;6.40;99.90;;;;;;5046293;28;20196;-53
2022/03/05 08:13:29;;;;;;;16.25;10.18;;;6.40;99.90;;;;;;5037145;28;20236;-54
2022/03/05 08:16:39;;;;;;;11.85;8.55;;;6.40;99.90;;;;;;5045725;28;20253;-52
2022/03/05 08:19:37;;;;;;;11.88;7.93;;;6.40;99.90;;;;;;5024751;28;20216;-52
2022/03/05 08:22:30;;;;;;;11.45;7.28;;;6.40;99.90;;;;;;5039997;28;20208;-53
2022/03/05 08:25:00;;;;;;;12.32;8.77;;;6.40;99.90;;;;;;5052727;28;20291;-52
2022/03/05 08:27:34;;;;;;;10.07;7.40;;;6.40;99.90;;;;;;5050342;28;20216;-52
2022/03/05 08:30:07;;;;;;;11.75;6.93;;;6.40;99.90;;;;;;5033225;28;20228;-53
2022/03/05 08:32:38;;;;;;;12.75;7.53;;;6.40;99.90;;;;;;5033119;28;20221;-53
2022/03/05 08:35:12;;;;;;;10.82;7.90;;;6.50;99.90;;;;;;5033930;28;20205;-52
2022/03/05 08:37:44;;;;;;;10.55;7.32;;;6.50;99.90;;;;;;5052523;28;20251;-53
2022/03/05 08:40:15;;;;;;;12.35;7.88;;;6.50;99.90;;;;;;5048470;28;20217;-53
2022/03/05 08:42:48;;;;;;;12.88;7.45;;;6.50;99.90;;;;;;5031902;28;20240;-52
2022/03/05 08:45:20;;;;;;;12.50;7.32;;;6.50;99.90;;;;;;5039361;28;20281;-54
2022/03/05 08:47:49;;;;;;;12.80;6.82;;;6.50;99.90;;;;;;5043008;28;20233;-52
2022/03/05 08:50:20;;;;;;;11.40;6.82;;;6.50;99.90;;;;;;5034702;28;20672;-53
2022/03/05 08:52:51;;;;;;;12.30;7.93;;;6.50;99.90;;;;;;5050418;28;20223;-54
2022/03/05 08:55:20;;;;;;;12.98;8.32;;;6.50;99.90;;;;;;5051786;28;20208;-53
2022/03/05 08:57:49;;;;;;;10.10;7.40;;;6.50;99.90;;;;;;5050510;28;20282;-52
2022/03/05 09:00:19;;;;;;;12.52;7.50;;;6.50;99.90;;;;;;5029404;28;20201;-53
2022/03/05 09:02:49;;;;;;;12.50;8.35;;;6.50;99.90;;;;;;5051824;28;20220;-53
2022/03/05 09:05:20;;;;;;;12.13;8.02;;;6.50;99.90;;;;;;5050556;28;20184;-53
2022/03/05 09:08:08;;;;;;;11.93;7.78;;;6.50;99.90;;;;;;5049946;28;20687;-53
2022/03/05 09:10:56;;;;;;;10.60;6.40;;;6.50;99.90;;;;;;5051894;28;20211;-53
2022/03/05 09:13:43;;;;;;;17.13;9.00;;;6.50;99.90;;;;;;5044370;28;20236;-53
2022/03/05 09:16:31;;;;;;;11.15;7.28;;;6.60;99.90;;;;;;5050081;28;20275;-53
2022/03/05 09:19:20;;;;;;;13.88;8.00;;;6.60;99.90;;;;;;5050838;28;20231;-52
2022/03/05 09:22:10;;;;;;;15.07;8.57;;;6.60;99.90;;;;;;5050070;28;20741;-53
2022/03/05 09:25:01;;;;;;;15.27;8.30;;;6.60;99.90;;;;;;5050602;28;20246;-53
2022/03/05 09:27:52;;;;;;;12.50;8.48;;;6.60;99.90;;;;;;5047413;28;20223;-53
2022/03/05 09:30:40;;;;;;;13.50;8.18;;;6.60;99.90;;;;;;5050568;28;20219;-51
2022/03/05 09:33:28;;;;;;;11.68;7.13;;;6.60;99.90;;;;;;5032887;28;20279;-52
2022/03/05 09:36:15;;;;;;;15.00;8.40;;;6.60;99.90;;;;;;5041850;28;20219;-54
2022/03/05 09:38:48;;;;;;;12.60;7.93;;;6.60;99.90;;;;;;5049840;28;20738;-53
2022/03/05 09:41:17;;;;;;;12.00;8.30;;;6.60;99.90;;;;;;5049090;28;20221;-52
2022/03/05 09:43:47;;;;;;;12.15;7.30;;;6.60;99.90;;;;;;5047388;28;20216;-52
2022/03/05 09:46:22;;;;;;;16.25;10.75;;;6.60;99.90;;;;;;5042236;28;20691;-54
2022/03/05 09:48:53;;;;;;;20.70;14.70;;;6.60;99.90;;;;;;5041876;28;20243;-52
2022/03/05 09:51:24;;;;;;;20.15;12.75;;;6.60;99.90;;;;;;5049950;28;20630;-52
2022/03/05 09:53:55;;;;;;;21.20;13.55;;;6.60;99.90;;;;;;5049689;28;20263;-53
2022/03/05 09:56:23;;;;;;;23.10;14.77;;;6.60;99.90;;;;;;5039028;28;20204;-51
2022/03/05 09:58:54;;;;;;;25.60;15.70;;;6.60;99.90;;;;;;5045589;28;20295;-53
2022/03/05 10:01:24;;;;;;;23.23;15.15;;;6.70;99.80;;;;;;5047225;28;20209;-53
2022/03/05 10:03:55;;;;;;;23.20;13.68;;;6.70;99.80;;;;;;5047540;28;20718;-52
2022/03/05 10:06:28;;;;;;;23.85;13.43;;;6.80;99.90;;;;;;5045112;28;20189;-52
2022/03/05 10:08:59;;;;;;;26.00;14.80;;;6.80;99.90;;;;;;5048578;28;20626;-55
2022/03/05 10:11:39;;;;;;;21.70;12.93;;;6.80;99.90;;;;;;5049091;28;20208;-54
2022/03/05 10:14:17;;;;;;;22.80;15.07;;;6.90;99.90;;;;;;5046329;28;20208;-53
2022/03/05 10:16:47;;;;;;;23.05;14.07;;;6.90;99.90;;;;;;5046443;28;20231;-55
2022/03/05 10:19:20;;;;;;;19.38;11.48;;;6.90;99.90;;;;;;5047475;28;20229;-52
2022/03/05 10:22:08;;;;;;;19.40;12.68;;;6.90;99.90;;;;;;5046848;28;20239;-53
2022/03/05 10:24:41;;;;;;;20.65;12.93;;;6.90;99.90;;;;;;5047173;28;20480;-54
2022/03/05 10:27:11;;;;;;;19.55;12.68;;;7.00;99.90;;;;;;5047866;28;20181;-54
2022/03/05 10:29:41;;;;;;;20.58;13.55;;;7.00;99.90;;;;;;5039681;28;20700;-54
2022/03/05 10:32:28;;;;;;;21.77;12.90;;;7.00;99.90;;;;;;5031612;28;20710;-52
2022/03/05 10:34:57;;;;;;;18.60;12.40;;;7.00;99.90;;;;;;5040222;28;20192;-53
2022/03/05 10:37:25;;;;;;;17.27;11.38;;;7.00;99.90;;;;;;5031263;28;20258;-53
2022/03/05 10:39:57;;;;;;;20.95;12.75;;;7.00;99.90;;;;;;5049570;28;20193;-53
2022/03/05 10:42:30;;;;;;;18.45;11.77;;;7.00;99.90;;;;;;5047695;28;20208;-52
2022/03/05 10:45:01;;;;;;;20.25;12.23;;;7.00;99.90;;;;;;5046633;28;20196;-54
2022/03/05 10:47:38;;;;;;;19.02;11.73;;;7.00;99.90;;;;;;5049322;28;20191;-52
2022/03/05 10:50:09;;;;;;;19.67;11.88;;;7.00;99.90;;;;;;5046512;28;20203;-52
2022/03/05 10:52:48;;;;;;;16.27;10.98;;;7.00;99.90;;;;;;5048776;28;20228;-53
2022/03/05 10:55:21;;;;;;;18.75;11.43;;;7.00;99.90;;;;;;5045102;28;20783;-52
2022/03/05 10:57:58;;;;;;;16.05;10.40;;;7.00;99.90;;;;;;5043085;28;20270;-54
2022/03/05 11:00:28;;;;;;;15.80;10.63;;;7.00;99.90;;;;;;5053481;28;20192;-54
2022/03/05 11:03:02;;;;;;;16.33;10.23;;;7.00;99.90;;;;;;5049832;28;20704;-52
2022/03/05 11:05:34;;;;;;;17.67;10.40;;;7.00;99.90;;;;;;5050764;28;20204;-53
2022/03/05 11:08:04;;;;;;;16.08;9.10;;;7.00;99.90;;;;;;5049880;28;20300;-53
2022/03/05 11:10:35;;;;;;;16.48;10.93;;;7.00;99.90;;;;;;5051757;28;20657;-54
2022/03/05 11:13:07;;;;;;;13.95;9.25;;;7.00;99.90;;;;;;5052393;28;20695;-53
2022/03/05 11:15:36;;;;;;;16.05;10.00;;;7.00;99.90;;;;;;5018043;28;20197;-53
2022/03/05 11:18:05;;;;;;;15.23;10.23;;;7.00;99.90;;;;;;5043192;28;20224;-52
2022/03/05 11:20:35;;;;;;;15.55;9.80;;;7.00;99.90;;;;;;5047075;28;20646;-54
2022/03/05 11:23:05;;;;;;;14.95;9.82;;;7.00;99.90;;;;;;5051846;28;20216;-53
2022/03/05 11:25:37;;;;;;;15.25;10.23;;;7.00;99.90;;;;;;5053556;28;20192;-52
2022/03/05 11:28:36;;;;;;;20.85;11.30;;;7.00;99.90;;;;;;4963557;28;20224;-54
2022/03/05 11:31:29;;;;;;;13.05;9.43;;;7.00;99.90;;;;;;4957310;28;20218;-53
2022/03/05 11:34:14;;;;;;;14.05;9.10;;;7.00;99.90;;;;;;5033093;28;20265;-54
2022/03/05 11:36:43;;;;;;;17.35;9.25;;;7.00;99.90;;;;;;5044025;28;20196;-53
2022/03/05 11:39:19;;;;;;;15.98;9.57;;;7.00;99.90;;;;;;5053317;28;20238;-53
2022/03/05 11:41:51;;;;;;;14.38;9.80;;;7.00;99.90;;;;;;5034614;28;20702;-53
2022/03/05 11:44:23;;;;;;;18.58;9.82;;;7.00;99.90;;;;;;5039347;28;20536;-52
2022/03/05 11:47:23;;;;;;;14.13;8.73;;;7.00;99.90;;;;;;5052949;28;20338;-53
2022/03/05 11:50:16;;;;;;;13.85;10.23;;;7.00;99.90;;;;;;5052436;28;20224;-51
2022/03/05 11:53:06;;;;;;;12.20;7.97;;;7.00;99.90;;;;;;5043637;28;20224;-54
2022/03/05 11:55:42;;;;;;;11.70;7.53;;;6.90;99.90;;;;;;5051141;28;20308;-51
2022/03/05 11:58:36;;;;;;;14.65;10.40;;;7.00;99.90;;;;;;5046152;28;20234;-54
2022/03/05 12:01:36;;;;;;;13.95;7.60;;;6.90;99.90;;;;;;5047752;28;20307;-53
2022/03/05 12:04:24;;;;;;;13.10;8.57;;;6.90;99.90;;;;;;5026051;28;20208;-53
2022/03/05 12:07:04;;;;;;;12.40;8.65;;;6.90;99.90;;;;;;5049821;28;20541;-54
2022/03/05 12:09:40;;;;;;;10.95;7.95;;;6.90;99.90;;;;;;5052085;28;20699;-53
2022/03/05 12:12:13;;;;;;;10.82;8.00;;;6.90;99.90;;;;;;5052791;28;20691;-54
2022/03/05 12:15:14;;;;;;;13.02;8.18;;;6.90;99.90;;;;;;5049233;28;20228;-53
2022/03/05 12:17:51;;;;;;;12.75;8.15;;;6.90;99.90;;;;;;5050514;28;20224;-53
2022/03/05 12:20:26;;;;;;;10.40;7.85;;;6.90;99.90;;;;;;5047337;28;20195;-52
2022/03/05 12:22:58;;;;;;;12.27;8.35;;;6.90;99.90;;;;;;5046715;28;20228;-54
2022/03/05 12:25:28;;;;;;;11.15;7.95;;;6.90;99.90;;;;;;5049141;28;20196;-53
2022/03/05 12:28:18;;;;;;;12.48;7.45;;;6.90;99.90;;;;;;5051519;28;20722;-53
2022/03/05 12:31:07;;;;;;;10.27;7.35;;;6.90;99.90;;;;;;5044958;28;20358;-53
2022/03/05 12:33:53;;;;;;;10.73;7.88;;;6.90;99.90;;;;;;5049116;28;20231;-52
2022/03/05 12:36:48;;;;;;;10.73;7.35;;;6.90;99.90;;;;;;5049765;28;20273;-52
2022/03/05 12:39:24;;;;;;;17.83;8.25;;;7.00;99.90;;;;;;5044812;28;20248;-53
2022/03/05 12:41:53;;;;;;;16.58;7.90;;;7.00;99.90;;;;;;5051311;28;20265;-52
2022/03/05 12:44:21;;;;;;;16.70;7.80;;;7.00;99.90;;;;;;5048893;28;20255;-52
2022/03/05 12:46:51;;;;;;;11.40;7.07;;;7.00;99.90;;;;;;5025726;28;20199;-53
2022/03/05 12:49:19;;;;;;;10.23;7.47;;;7.00;99.90;;;;;;5050102;28;20224;-54
2022/03/05 12:51:47;;;;;;;10.60;6.70;;;7.00;99.90;;;;;;5048945;28;20197;-53
2022/03/05 12:54:20;;;;;;;11.15;7.45;;;6.90;99.90;;;;;;5051530;28;20377;-54
2022/03/05 12:56:48;;;;;;;10.57;7.90;;;6.90;99.90;;;;;;5047771;28;20238;-53
2022/03/05 12:59:16;;;;;;;10.35;7.18;;;6.90;99.90;;;;;;5040594;28;20615;-55
2022/03/05 13:01:45;;;;;;;12.13;6.65;;;6.90;99.90;;;;;;5042896;28;20242;-53
2022/03/05 13:04:17;;;;;;;12.15;6.72;;;6.90;99.90;;;;;;5047859;28;20234;-53
2022/03/05 13:06:49;;;;;;;11.23;6.70;;;6.90;99.90;;;;;;5036347;28;20677;-53
2022/03/05 13:09:18;;;;;;;9.23;7.20;;;6.90;99.90;;;;;;5038172;28;20270;-53
2022/03/05 13:11:58;;;;;;;8.13;6.93;;;6.90;99.90;;;;;;5051341;28;20212;-54
2022/03/05 13:14:27;;;;;;;10.40;7.40;;;6.90;99.90;;;;;;5048274;28;20231;-53
2022/03/05 13:16:55;;;;;;;12.02;7.50;;;6.90;99.90;;;;;;5051436;28;20250;-54